Time;durP1;ratioP1;P1;durP2;ratioP2;P2;SDS_P1;SDS_P2;PMS_P1;PMS_P2;Temp;Humidity;BMP_temperature;BMP_pressure;BME280_temperature;BME280_humidity;BME280_pressure;Samples;Min_cycle;Max_cycle;Signal;HPM_P1;HPM_P2
2021/11/22 00:00:20;;;;;;;79.18;54.95;;;6.80;99.80;;;;;;5066015;28;20230;-86
2021/11/22 00:02:50;;;;;;;74.35;49.38;;;6.70;99.80;;;;;;5062621;28;20240;-86
2021/11/22 00:05:18;;;;;;;79.07;54.42;;;6.70;99.80;;;;;;5068392;28;20227;-86
2021/11/22 00:07:46;;;;;;;81.40;53.75;;;6.70;99.80;;;;;;5058136;28;20228;-86
2021/11/22 00:10:15;;;;;;;76.18;52.63;;;6.70;99.80;;;;;;5056537;28;20232;-86
2021/11/22 00:12:43;;;;;;;77.60;54.97;;;6.70;99.80;;;;;;5054479;28;20706;-86
2021/11/22 00:15:14;;;;;;;85.53;55.00;;;6.70;99.80;;;;;;5056943;28;20227;-85
2021/11/22 00:17:42;;;;;;;80.85;55.85;;;6.70;99.80;;;;;;5050322;28;20834;-86
2021/11/22 00:20:15;;;;;;;79.95;54.53;;;6.60;99.80;;;;;;5037841;28;20722;-86
2021/11/22 00:22:44;;;;;;;85.40;53.60;;;6.60;99.80;;;;;;5044594;28;20243;-86
2021/11/22 00:25:13;;;;;;;75.75;53.00;;;6.60;99.80;;;;;;5047086;28;20225;-87
2021/11/22 00:27:41;;;;;;;74.35;51.65;;;6.60;99.80;;;;;;5045649;28;20240;-86
2021/11/22 00:30:09;;;;;;;76.47;52.97;;;6.60;99.80;;;;;;5039743;28;20579;-86
2021/11/22 00:32:37;;;;;;;73.95;52.17;;;6.60;99.80;;;;;;5028939;28;20236;-86
2021/11/22 00:35:06;;;;;;;69.53;48.97;;;6.60;99.80;;;;;;5026949;28;20223;-86
2021/11/22 00:37:37;;;;;;;82.57;50.70;;;6.60;99.80;;;;;;5049602;28;20235;-87
2021/11/22 00:40:07;;;;;;;73.15;52.50;;;6.60;99.80;;;;;;5048871;28;20233;-87
2021/11/22 00:42:36;;;;;;;75.72;52.75;;;6.60;99.80;;;;;;5048740;28;20232;-86
2021/11/22 00:45:06;;;;;;;72.20;52.10;;;6.50;99.80;;;;;;5046799;28;20232;-87
2021/11/22 00:47:36;;;;;;;77.22;51.08;;;6.50;99.80;;;;;;5046041;28;20232;-86
2021/11/22 00:50:04;;;;;;;81.95;52.25;;;6.50;99.80;;;;;;5046667;28;20239;-86
2021/11/22 00:52:33;;;;;;;79.82;53.72;;;6.50;99.80;;;;;;5036003;28;20730;-86
2021/11/22 00:55:02;;;;;;;74.28;53.03;;;6.60;99.80;;;;;;5044201;28;20237;-87
2021/11/22 00:57:31;;;;;;;74.60;52.70;;;6.50;99.80;;;;;;5044717;28;20228;-86
2021/11/22 00:59:59;;;;;;;75.53;52.50;;;6.50;99.80;;;;;;5041083;28;20224;-86
2021/11/22 01:02:27;;;;;;;69.43;51.75;;;6.50;99.80;;;;;;5025051;28;20224;-87
2021/11/22 01:04:55;;;;;;;71.18;48.85;;;6.50;99.80;;;;;;5044920;28;20706;-86
2021/11/22 01:07:23;;;;;;;72.03;52.97;;;6.50;99.80;;;;;;5045471;28;20233;-86
2021/11/22 01:09:52;;;;;;;74.35;50.90;;;6.40;99.80;;;;;;5046224;28;20221;-87
2021/11/22 01:12:25;;;;;;;71.57;51.80;;;6.40;99.80;;;;;;5046463;28;20225;-87
2021/11/22 01:14:53;;;;;;;71.78;51.80;;;6.40;99.80;;;;;;5031490;28;20235;-86
2021/11/22 01:17:21;;;;;;;72.60;52.95;;;6.30;99.80;;;;;;5061833;28;20231;-86
2021/11/22 01:19:51;;;;;;;77.18;51.85;;;6.30;99.80;;;;;;5062274;28;20709;-86
2021/11/22 01:22:20;;;;;;;71.28;50.60;;;6.30;99.80;;;;;;5061205;28;20230;-86
2021/11/22 01:24:48;;;;;;;81.00;53.58;;;6.30;99.80;;;;;;5058206;28;20606;-86
2021/11/22 01:27:37;;;;;;;72.70;51.80;;;6.30;99.80;;;;;;5051849;28;20243;-86
2021/11/22 01:30:10;;;;;;;74.15;52.58;;;6.20;99.80;;;;;;5057167;28;20236;-86
2021/11/22 01:32:38;;;;;;;73.28;51.42;;;6.20;99.80;;;;;;5058288;28;20231;-86
2021/11/22 01:35:06;;;;;;;72.32;51.67;;;6.20;99.80;;;;;;5057825;28;20242;-86
2021/11/22 01:37:35;;;;;;;68.82;50.97;;;6.20;99.80;;;;;;5064314;28;20235;-87
2021/11/22 01:40:03;;;;;;;69.30;52.33;;;6.20;99.80;;;;;;5064474;28;20736;-87
2021/11/22 01:42:31;;;;;;;70.43;50.30;;;6.10;99.80;;;;;;5065464;28;20311;-87
2021/11/22 01:45:00;;;;;;;69.90;50.55;;;6.10;99.80;;;;;;5059386;28;20231;-86
2021/11/22 01:47:28;;;;;;;63.60;48.22;;;6.10;99.80;;;;;;5047489;28;20223;-87
2021/11/22 01:49:56;;;;;;;68.45;51.80;;;6.10;99.80;;;;;;5053552;28;20238;-87
2021/11/22 01:52:24;;;;;;;70.93;50.58;;;6.00;99.80;;;;;;5064971;28;20228;-87
2021/11/22 01:54:52;;;;;;;68.07;51.13;;;6.00;99.80;;;;;;5050557;28;20224;-87
2021/11/22 01:57:21;;;;;;;68.53;50.38;;;6.00;99.80;;;;;;5072334;28;20739;-86
2021/11/22 01:59:49;;;;;;;66.68;50.53;;;6.10;99.80;;;;;;5062106;28;20577;-86
2021/11/22 02:02:18;;;;;;;62.03;48.80;;;6.10;99.80;;;;;;5041029;28;20236;-87
2021/11/22 02:04:46;;;;;;;66.10;48.92;;;6.10;99.80;;;;;;5039150;28;20232;-87
2021/11/22 02:07:14;;;;;;;72.90;50.10;;;6.10;99.80;;;;;;5045276;28;20239;-86
2021/11/22 02:09:43;;;;;;;69.00;48.10;;;6.00;99.80;;;;;;5059973;28;20231;-85
2021/11/22 02:12:11;;;;;;;64.75;48.33;;;6.10;99.80;;;;;;5068051;28;20232;-86
2021/11/22 02:14:39;;;;;;;69.93;49.92;;;6.10;99.80;;;;;;5060189;28;20703;-88
2021/11/22 02:17:08;;;;;;;63.38;47.15;;;6.10;99.80;;;;;;5061879;28;20235;-87
2021/11/22 02:19:52;;;;;;;64.15;48.13;;;6.00;99.80;;;;;;5062966;28;20231;-88
2021/11/22 02:22:20;;;;;;;66.32;50.38;;;6.00;99.80;;;;;;5060034;28;20228;-88
2021/11/22 02:24:47;;;;;;;70.43;47.92;;;6.00;99.80;;;;;;5071547;28;20220;-88
2021/11/22 02:27:15;;;;;;;60.42;46.47;;;6.00;99.80;;;;;;5050642;28;20227;-88
2021/11/22 02:29:44;;;;;;;66.45;47.80;;;6.00;99.80;;;;;;5063388;28;20226;-88
2021/11/22 02:32:12;;;;;;;67.82;48.33;;;6.00;99.80;;;;;;5041720;28;20228;-88
2021/11/22 02:34:42;;;;;;;65.35;49.05;;;5.90;99.80;;;;;;5039129;28;20656;-88
2021/11/22 02:37:10;;;;;;;63.78;48.20;;;5.90;99.80;;;;;;5053034;28;20232;-88
2021/11/22 02:39:38;;;;;;;76.88;49.00;;;5.90;99.80;;;;;;5043339;28;20225;-88
2021/11/22 02:42:13;;;;;;;59.90;46.42;;;5.90;99.80;;;;;;5045161;28;20248;-88
2021/11/22 02:44:41;;;;;;;71.20;48.00;;;5.90;99.80;;;;;;5063065;28;20234;-88
2021/11/22 02:47:11;;;;;;;64.03;48.75;;;5.90;99.80;;;;;;5044047;28;20219;-89
2021/11/22 02:49:38;;;;;;;61.72;47.47;;;5.90;99.80;;;;;;5067659;28;20237;-89
2021/11/22 02:52:13;;;;;;;63.35;46.47;;;5.90;99.80;;;;;;5070041;28;20228;-87
2021/11/22 02:54:41;;;;;;;63.53;47.28;;;5.80;99.80;;;;;;5068309;28;20228;-87
2021/11/22 02:57:10;;;;;;;65.55;47.17;;;5.80;99.80;;;;;;5067491;28;20234;-88
2021/11/22 02:59:40;;;;;;;65.28;48.45;;;5.80;99.80;;;;;;5066530;28;20249;-87
2021/11/22 03:02:09;;;;;;;66.93;48.58;;;5.80;99.80;;;;;;5062552;28;20722;-87
2021/11/22 03:04:39;;;;;;;63.53;47.08;;;5.80;99.80;;;;;;5066150;28;20833;-87
2021/11/22 03:07:08;;;;;;;61.00;46.47;;;5.80;99.80;;;;;;5064405;28;20227;-86
2021/11/22 03:09:38;;;;;;;67.60;48.35;;;5.80;99.80;;;;;;5068515;28;20245;-87
2021/11/22 03:12:10;;;;;;;64.25;47.05;;;5.70;99.80;;;;;;5068189;28;20254;-87
2021/11/22 03:14:39;;;;;;;65.32;47.30;;;5.70;99.80;;;;;;5073682;28;20238;-88
2021/11/22 03:17:07;;;;;;;65.80;47.67;;;5.70;99.80;;;;;;5043913;28;20237;-86
2021/11/22 03:19:36;;;;;;;66.97;46.58;;;5.70;99.80;;;;;;5059454;28;20281;-87
2021/11/22 03:22:05;;;;;;;64.78;48.30;;;5.70;99.80;;;;;;5061461;28;20230;-87
2021/11/22 03:24:33;;;;;;;63.88;46.00;;;5.70;99.80;;;;;;5054402;28;20710;-86
2021/11/22 03:27:04;;;;;;;66.93;50.72;;;5.70;99.80;;;;;;5059027;28;20224;-86
2021/11/22 03:29:32;;;;;;;61.28;46.58;;;5.70;99.80;;;;;;5059925;28;20243;-86
2021/11/22 03:32:00;;;;;;;64.60;46.38;;;5.70;99.80;;;;;;5059620;28;20228;-86
2021/11/22 03:34:29;;;;;;;60.75;46.25;;;5.60;99.80;;;;;;5059593;28;20261;-86
2021/11/22 03:37:01;;;;;;;59.78;46.00;;;5.70;99.80;;;;;;5059989;28;20235;-86
2021/11/22 03:39:32;;;;;;;61.83;46.20;;;5.70;99.80;;;;;;5069397;28;20677;-86
2021/11/22 03:42:03;;;;;;;65.20;47.13;;;5.70;99.80;;;;;;5068426;28;20228;-86
2021/11/22 03:44:33;;;;;;;60.42;45.70;;;5.70;99.80;;;;;;5065595;28;20314;-88
2021/11/22 03:47:01;;;;;;;55.63;44.55;;;5.70;99.80;;;;;;5056633;28;20589;-87
2021/11/22 03:49:33;;;;;;;64.03;45.90;;;5.60;99.80;;;;;;5054787;28;20232;-86
2021/11/22 03:52:02;;;;;;;65.75;49.05;;;5.60;99.80;;;;;;5069745;28;20231;-87
2021/11/22 03:54:30;;;;;;;64.78;48.15;;;5.60;99.80;;;;;;5067240;28;20239;-87
2021/11/22 03:56:58;;;;;;;69.28;47.45;;;5.50;99.80;;;;;;5060887;28;20243;-86
2021/11/22 03:59:27;;;;;;;64.03;47.88;;;5.50;99.80;;;;;;5062180;28;20274;-88
2021/11/22 04:02:05;;;;;;;59.38;44.72;;;5.50;99.80;;;;;;5065083;28;20276;-87
2021/11/22 04:04:33;;;;;;;59.95;45.78;;;5.50;99.80;;;;;;5063334;28;20301;-87
2021/11/22 04:07:01;;;;;;;60.28;43.95;;;5.50;99.80;;;;;;5067323;28;20228;-86
2021/11/22 04:09:34;;;;;;;60.75;44.00;;;5.50;99.80;;;;;;5068081;28;20231;-87
2021/11/22 04:12:02;;;;;;;65.30;46.28;;;5.50;99.80;;;;;;5068101;28;20239;-87
2021/11/22 04:14:30;;;;;;;58.88;44.95;;;5.50;99.80;;;;;;5069192;28;20720;-86
2021/11/22 04:16:58;;;;;;;55.97;44.10;;;5.50;99.80;;;;;;5068612;28;20233;-88
2021/11/22 04:19:28;;;;;;;58.05;44.85;;;5.50;99.80;;;;;;5062572;28;20659;-87
2021/11/22 04:21:56;;;;;;;66.75;45.63;;;5.50;99.80;;;;;;5075736;28;20236;-87
2021/11/22 04:24:24;;;;;;;64.72;49.63;;;5.50;99.80;;;;;;5068193;28;20232;-87
2021/11/22 04:26:52;;;;;;;57.20;44.13;;;5.50;99.80;;;;;;5058899;28;20234;-86
2021/11/22 04:29:20;;;;;;;61.78;48.90;;;5.40;99.80;;;;;;5064041;28;20242;-86
2021/11/22 04:31:48;;;;;;;61.38;44.92;;;5.50;99.80;;;;;;5057563;28;20235;-87
2021/11/22 04:34:17;;;;;;;61.10;44.47;;;5.50;99.80;;;;;;5058386;28;20240;-87
2021/11/22 04:36:46;;;;;;;64.82;44.08;;;5.50;99.80;;;;;;5057197;28;20231;-87
2021/11/22 04:39:14;;;;;;;64.15;46.67;;;5.60;99.80;;;;;;5063160;28;20231;-86
2021/11/22 04:41:43;;;;;;;60.83;45.55;;;5.60;99.80;;;;;;5064745;28;20227;-85
2021/11/22 04:44:12;;;;;;;58.08;44.38;;;5.60;99.80;;;;;;5055990;28;20227;-85
2021/11/22 04:46:40;;;;;;;68.07;49.53;;;5.60;99.80;;;;;;5073113;28;20220;-85
2021/11/22 04:49:08;;;;;;;57.80;44.17;;;5.50;99.80;;;;;;5065295;28;20227;-85
2021/11/22 04:51:38;;;;;;;65.85;47.33;;;5.50;99.80;;;;;;5069283;28;20236;-85
2021/11/22 04:54:07;;;;;;;66.97;46.70;;;5.40;99.80;;;;;;5058203;28;20220;-88
2021/11/22 04:56:35;;;;;;;60.00;44.17;;;5.30;99.80;;;;;;5051631;28;20239;-88
2021/11/22 04:59:04;;;;;;;64.97;45.90;;;5.30;99.80;;;;;;5049716;28;20223;-88
2021/11/22 05:01:32;;;;;;;55.28;43.70;;;5.20;99.80;;;;;;5016931;28;20256;-88
2021/11/22 05:04:00;;;;;;;63.03;48.00;;;5.10;99.80;;;;;;5036841;28;20236;-88
2021/11/22 05:06:28;;;;;;;62.00;45.00;;;5.10;99.80;;;;;;5059854;28;20228;-88
2021/11/22 05:08:56;;;;;;;63.78;47.45;;;5.10;99.80;;;;;;5067288;28;20226;-88
2021/11/22 05:11:25;;;;;;;62.22;47.58;;;5.00;99.80;;;;;;5049997;28;20236;-88
2021/11/22 05:13:54;;;;;;;62.83;45.50;;;4.90;99.80;;;;;;5045152;28;20238;-88
2021/11/22 05:16:22;;;;;;;64.18;45.90;;;4.90;99.80;;;;;;5048829;28;20243;-88
2021/11/22 05:18:50;;;;;;;66.03;45.83;;;4.80;99.80;;;;;;5034063;28;20219;-88
2021/11/22 05:21:18;;;;;;;64.75;46.58;;;4.80;99.80;;;;;;5073696;28;20240;-87
2021/11/22 05:23:48;;;;;;;58.22;44.17;;;4.70;99.80;;;;;;5061539;28;20222;-88
2021/11/22 05:26:16;;;;;;;59.80;44.95;;;4.60;99.80;;;;;;5061700;28;20678;-88
2021/11/22 05:28:46;;;;;;;59.42;45.08;;;4.50;99.80;;;;;;5052814;28;20224;-88
2021/11/22 05:31:13;;;;;;;61.97;45.30;;;4.40;99.80;;;;;;5049806;28;20737;-88
2021/11/22 05:33:43;;;;;;;62.17;46.00;;;4.40;99.80;;;;;;5057355;28;20227;-88
2021/11/22 05:36:11;;;;;;;63.38;44.95;;;4.30;99.80;;;;;;5058635;28;20226;-88
2021/11/22 05:38:39;;;;;;;71.22;47.55;;;4.30;99.80;;;;;;5043378;28;20230;-88
2021/11/22 05:41:07;;;;;;;64.78;47.90;;;4.30;99.80;;;;;;5048586;28;20230;-88
2021/11/22 05:43:36;;;;;;;57.95;43.65;;;4.30;99.80;;;;;;5053594;28;20764;-88
2021/11/22 05:46:06;;;;;;;65.05;45.15;;;4.30;99.80;;;;;;5042400;28;20231;-87
2021/11/22 05:48:35;;;;;;;60.22;46.03;;;4.20;99.80;;;;;;5061441;28;20840;-88
2021/11/22 05:51:05;;;;;;;57.15;43.63;;;4.30;99.80;;;;;;5050530;28;20234;-88
2021/11/22 05:53:34;;;;;;;64.18;43.70;;;4.30;99.80;;;;;;5065274;28;20306;-86
2021/11/22 05:56:04;;;;;;;61.72;44.53;;;4.30;99.80;;;;;;5064116;28;20232;-84
2021/11/22 05:58:33;;;;;;;57.80;45.75;;;4.30;99.80;;;;;;5073052;28;20231;-86
2021/11/22 06:01:02;;;;;;;61.20;44.33;;;4.30;99.80;;;;;;5063521;28;20244;-85
2021/11/22 06:03:32;;;;;;;61.58;44.35;;;4.30;99.80;;;;;;5031687;28;20314;-84
2021/11/22 06:06:01;;;;;;;62.20;45.25;;;4.20;99.80;;;;;;5050061;28;20242;-84
2021/11/22 06:08:29;;;;;;;62.35;44.83;;;4.20;99.80;;;;;;5065731;28;20231;-85
2021/11/22 06:10:58;;;;;;;60.35;43.80;;;4.10;99.80;;;;;;5043411;28;20302;-86
2021/11/22 06:13:26;;;;;;;63.05;44.35;;;4.10;99.80;;;;;;5037430;28;20608;-85
2021/11/22 06:15:54;;;;;;;59.58;45.03;;;4.00;99.80;;;;;;5043924;28;20225;-86
2021/11/22 06:18:22;;;;;;;59.92;45.78;;;4.00;99.80;;;;;;5043525;28;20255;-86
2021/11/22 06:20:51;;;;;;;57.30;44.28;;;4.00;99.80;;;;;;5040203;28;20231;-86
2021/11/22 06:23:19;;;;;;;58.70;44.17;;;3.90;99.80;;;;;;5044500;28;20229;-85
2021/11/22 06:25:47;;;;;;;60.70;43.03;;;3.90;99.80;;;;;;5049283;28;20703;-85
2021/11/22 06:28:15;;;;;;;59.75;43.65;;;3.90;99.80;;;;;;5071037;28;20241;-85
2021/11/22 06:30:44;;;;;;;58.88;44.97;;;;;;;;;;5063121;28;20232;-85
2021/11/22 06:33:12;;;;;;;69.55;48.40;;;;;;;;;;5022446;28;20226;-86
2021/11/22 06:35:40;;;;;;;65.35;46.08;;;;;;;;;;5054434;28;20227;-86
2021/11/22 06:38:11;;;;;;;59.88;48.05;;;;;;;;;;5044568;28;20232;-86
2021/11/22 06:40:39;;;;;;;74.30;56.42;;;;;;;;;;5051727;28;20238;-86
2021/11/22 06:43:08;;;;;;;58.03;46.78;;;;;;;;;;5060417;28;20762;-85
2021/11/22 06:45:36;;;;;;;62.20;49.47;;;;;;;;;;5067934;28;20233;-85
2021/11/22 06:48:04;;;;;;;59.00;47.03;;;;;;;;;;5053629;28;20231;-85
2021/11/22 06:50:33;;;;;;;61.38;50.17;;;;;;;;;;5072857;28;20243;-86
2021/11/22 06:53:01;;;;;;;56.22;45.50;;;;;;;;;;5060152;28;20608;-86
2021/11/22 06:55:31;;;;;;;65.43;47.47;;;;;;;;;;5048774;28;20229;-85
2021/11/22 06:58:00;;;;;;;57.92;47.53;;;;;;;;;;5063295;28;20311;-87
2021/11/22 07:00:28;;;;;;;56.67;47.40;;;;;;;;;;5051874;28;20235;-86
2021/11/22 07:02:56;;;;;;;57.30;46.33;;;;;;;;;;5049725;28;20685;-86
2021/11/22 07:05:26;;;;;;;56.60;46.45;;;;;;;;;;5054934;28;20266;-85
2021/11/22 07:07:54;;;;;;;65.55;49.78;;;;;;;;;;5051653;28;20228;-83
2021/11/22 07:10:22;;;;;;;62.85;50.15;;;;;;;;;;5065698;28;20235;-85
2021/11/22 07:12:52;;;;;;;62.65;48.00;;;;;;;;;;5064332;28;20232;-85
2021/11/22 07:15:22;;;;;;;60.28;49.33;;;;;;;;;;5052304;28;20309;-86
2021/11/22 07:17:50;;;;;;;61.13;48.55;;;;;;;;;;5040913;28;20223;-85
2021/11/22 07:20:19;;;;;;;64.88;50.55;;;;;;;;;;5053348;28;21220;-85
2021/11/22 07:22:47;;;;;;;62.97;50.47;;;;;;;;;;5065919;28;20232;-85
2021/11/22 07:25:15;;;;;;;68.75;50.30;;;;;;;;;;5059833;28;20229;-85
2021/11/22 07:27:44;;;;;;;59.83;47.97;;;;;;;;;;5057871;28;20720;-85
2021/11/22 07:30:17;;;;;;;59.17;48.90;;;;;;;;;;5048743;28;20232;-85
2021/11/22 07:32:46;;;;;;;60.47;49.15;;;;;;;;;;5067298;28;20299;-85
2021/11/22 07:35:14;;;;;;;62.15;50.83;;;;;;;;;;5077192;28;20222;-86
2021/11/22 07:37:43;;;;;;;60.70;48.80;;;;;;;;;;5077792;28;20483;-86
2021/11/22 07:40:11;;;;;;;65.15;51.47;;;;;;;;;;5058830;28;20588;-86
2021/11/22 07:42:40;;;;;;;66.78;49.60;;;;;;;;;;5075150;28;20799;-84
2021/11/22 07:45:08;;;;;;;63.90;50.95;;;;;;;;;;5054899;28;20253;-85
2021/11/22 07:47:38;;;;;;;61.70;50.08;;;;;;;;;;5062559;28;20237;-86
2021/11/22 07:50:07;;;;;;;64.05;49.88;;;;;;;;;;5060945;28;20234;-85
2021/11/22 07:52:35;;;;;;;63.28;50.72;;;;;;;;;;5084477;28;20762;-86
2021/11/22 07:55:03;;;;;;;61.40;50.83;;;;;;;;;;5063886;28;20218;-86
2021/11/22 07:57:32;;;;;;;60.63;50.58;;;;;;;;;;5059302;28;20243;-84
2021/11/22 08:00:00;;;;;;;63.72;49.45;;;;;;;;;;5061933;28;20224;-85
2021/11/22 08:02:28;;;;;;;74.32;49.40;;;5.60;99.80;;;;;;5067107;28;20314;-86
2021/11/22 08:04:58;;;;;;;64.43;45.90;;;5.20;99.80;;;;;;5060628;28;20238;-85
2021/11/22 08:07:26;;;;;;;69.72;51.45;;;5.00;99.80;;;;;;5052299;28;20230;-86
2021/11/22 08:09:57;;;;;;;64.88;50.25;;;5.00;99.80;;;;;;5067960;28;20292;-86
2021/11/22 08:12:27;;;;;;;67.72;48.40;;;4.90;99.80;;;;;;5074160;28;20315;-85
2021/11/22 08:14:59;;;;;;;67.93;47.45;;;4.80;99.80;;;;;;5045864;28;20235;-85
2021/11/22 08:17:29;;;;;;;64.82;48.97;;;4.80;99.80;;;;;;5060810;28;20281;-85
2021/11/22 08:19:59;;;;;;;65.25;49.05;;;4.90;99.80;;;;;;5073991;28;20235;-86
2021/11/22 08:22:27;;;;;;;67.15;50.33;;;5.00;99.80;;;;;;5080749;28;20282;-85
2021/11/22 08:24:56;;;;;;;67.70;49.00;;;5.10;99.80;;;;;;5073549;28;20310;-85
2021/11/22 08:27:27;;;;;;;73.05;54.22;;;5.20;99.80;;;;;;5072574;28;20252;-85
2021/11/22 08:29:57;;;;;;;67.95;50.42;;;5.40;99.80;;;;;;5055808;28;20582;-84
2021/11/22 08:32:25;;;;;;;61.63;47.58;;;5.40;99.80;;;;;;5069461;28;20246;-85
2021/11/22 08:34:53;;;;;;;61.50;46.28;;;5.50;99.80;;;;;;5074740;28;20228;-85
2021/11/22 08:37:22;;;;;;;82.05;57.90;;;5.70;99.80;;;;;;5059710;28;20237;-85
2021/11/22 08:39:51;;;;;;;70.22;48.40;;;5.80;99.80;;;;;;5067946;28;20232;-85
2021/11/22 08:42:19;;;;;;;62.63;47.25;;;5.90;99.80;;;;;;5072479;28;20240;-85
2021/11/22 08:44:47;;;;;;;62.38;46.38;;;6.00;99.80;;;;;;5065194;28;20254;-85
2021/11/22 08:47:15;;;;;;;70.05;47.78;;;6.30;99.80;;;;;;5070804;28;20230;-87
2021/11/22 08:49:49;;;;;;;65.00;48.83;;;6.40;99.80;;;;;;5049304;28;20223;-86
2021/11/22 08:52:18;;;;;;;60.38;46.47;;;6.40;99.80;;;;;;5072045;28;20230;-85
2021/11/22 08:54:48;;;;;;;63.83;47.78;;;6.40;99.80;;;;;;5075931;28;20226;-85
2021/11/22 08:57:20;;;;;;;68.05;46.47;;;6.30;99.80;;;;;;5068212;28;20227;-89
2021/11/22 08:59:49;;;;;;;67.22;49.13;;;6.20;99.80;;;;;;5042773;28;20225;-87
2021/11/22 09:02:21;;;;;;;61.63;47.70;;;6.30;99.80;;;;;;5055770;28;20732;-85
2021/11/22 09:04:50;;;;;;;61.65;47.35;;;6.40;99.80;;;;;;5074561;28;20244;-84
2021/11/22 09:07:18;;;;;;;62.97;47.38;;;6.50;99.80;;;;;;5064910;28;20232;-84
2021/11/22 09:09:48;;;;;;;60.25;44.83;;;6.60;99.80;;;;;;5052753;28;20226;-84
2021/11/22 09:12:16;;;;;;;60.00;45.42;;;6.70;99.80;;;;;;5054617;28;20602;-83
2021/11/22 09:14:44;;;;;;;65.72;47.97;;;6.90;99.80;;;;;;5062958;28;20248;-84
2021/11/22 09:17:12;;;;;;;60.67;45.65;;;6.90;99.80;;;;;;5057294;28;20238;-83
2021/11/22 09:19:41;;;;;;;64.60;49.97;;;6.90;99.80;;;;;;5066883;28;20234;-84
2021/11/22 09:22:11;;;;;;;62.53;44.90;;;6.80;99.80;;;;;;5066631;28;20240;-86
2021/11/22 09:24:41;;;;;;;61.53;45.33;;;6.90;99.80;;;;;;5064411;28;20632;-85
2021/11/22 09:27:10;;;;;;;59.90;44.20;;;7.00;99.80;;;;;;5077112;28;20230;-85
2021/11/22 09:29:39;;;;;;;65.50;48.90;;;7.00;99.80;;;;;;5082090;28;20278;-85
2021/11/22 09:32:08;;;;;;;64.95;48.45;;;6.90;99.80;;;;;;5071871;28;20235;-86
2021/11/22 09:34:37;;;;;;;59.38;46.05;;;6.80;99.80;;;;;;5075271;28;20215;-85
2021/11/22 09:37:06;;;;;;;65.18;47.90;;;7.00;99.80;;;;;;5058608;28;20253;-85
2021/11/22 09:39:35;;;;;;;58.38;44.83;;;7.00;99.80;;;;;;5062299;28;20764;-84
2021/11/22 09:42:04;;;;;;;62.53;47.30;;;7.00;99.80;;;;;;5061587;28;20304;-87
2021/11/22 09:44:34;;;;;;;63.13;47.88;;;7.00;99.80;;;;;;5053224;28;20303;-86
2021/11/22 09:47:03;;;;;;;64.07;46.97;;;7.00;99.80;;;;;;5065425;28;20718;-85
2021/11/22 09:49:31;;;;;;;65.50;47.50;;;7.00;99.80;;;;;;5049704;28;20235;-85
2021/11/22 09:52:02;;;;;;;60.13;43.75;;;7.00;99.80;;;;;;5055306;28;20239;-85
2021/11/22 09:54:30;;;;;;;62.50;46.85;;;7.00;99.80;;;;;;5075810;28;20742;-86
2021/11/22 09:56:58;;;;;;;67.32;48.38;;;7.00;99.80;;;;;;5054097;28;20384;-86
2021/11/22 09:59:26;;;;;;;62.60;47.17;;;7.00;99.80;;;;;;5064685;28;20293;-86
2021/11/22 10:01:57;;;;;;;65.82;47.95;;;6.90;99.80;;;;;;5053433;28;20242;-86
2021/11/22 10:04:30;;;;;;;60.38;45.92;;;7.00;99.80;;;;;;5057064;28;20273;-85
2021/11/22 10:07:01;;;;;;;63.55;47.25;;;7.10;99.80;;;;;;5070618;28;20228;-86
2021/11/22 10:09:42;;;;;;;65.03;47.55;;;7.10;99.80;;;;;;5063126;28;20224;-85
2021/11/22 10:12:20;;;;;;;64.40;48.00;;;7.00;99.80;;;;;;5041245;28;20236;-85
2021/11/22 10:14:52;;;;;;;66.97;47.92;;;7.00;99.80;;;;;;5038273;28;20230;-84
2021/11/22 10:17:33;;;;;;;65.47;48.50;;;7.10;99.80;;;;;;5071886;28;20236;-85
2021/11/22 10:20:12;;;;;;;59.78;45.63;;;7.30;99.80;;;;;;5054041;28;20232;-85
2021/11/22 10:22:42;;;;;;;64.38;48.13;;;7.30;99.80;;;;;;5041629;28;20255;-85
2021/11/22 10:25:37;;;;;;;62.55;46.60;;;7.30;99.80;;;;;;5052257;28;20229;-86
2021/11/22 10:28:09;;;;;;;64.35;47.83;;;7.10;99.80;;;;;;5040241;28;20231;-86
2021/11/22 10:30:40;;;;;;;64.90;47.20;;;7.00;99.80;;;;;;5047011;28;20698;-88
2021/11/22 10:33:11;;;;;;;61.35;47.40;;;7.10;99.80;;;;;;5044693;28;20231;-85
2021/11/22 10:35:40;;;;;;;61.28;46.53;;;7.20;99.80;;;;;;5062507;28;20749;-86
2021/11/22 10:38:12;;;;;;;59.75;45.25;;;7.40;99.80;;;;;;5067961;28;20617;-86
2021/11/22 10:40:43;;;;;;;64.65;46.75;;;7.50;99.80;;;;;;5053511;28;20504;-85
2021/11/22 10:43:12;;;;;;;65.22;48.58;;;7.50;99.80;;;;;;5051749;28;20232;-86
2021/11/22 10:45:43;;;;;;;62.90;47.78;;;7.40;99.80;;;;;;5047946;28;20231;-86
2021/11/22 10:48:23;;;;;;;64.95;48.10;;;7.70;99.80;;;;;;5056884;28;20235;-82
2021/11/22 10:51:03;;;;;;;62.53;46.85;;;8.10;99.80;;;;;;5058942;28;20230;-82
2021/11/22 10:53:37;;;;;;;64.18;48.58;;;8.20;99.80;;;;;;5065578;28;20232;-83
2021/11/22 10:56:07;;;;;;;65.35;48.50;;;8.50;99.80;;;;;;5068085;28;20220;-82
2021/11/22 10:58:40;;;;;;;65.65;53.22;;;;;;;;;;5059964;28;20593;-83
2021/11/22 11:01:17;;;;;;;63.30;48.35;;;9.20;99.80;;;;;;5057741;28;20234;-82
2021/11/22 11:03:55;;;;;;;64.78;48.08;;;9.20;99.80;;;;;;5058179;28;20223;-82
2021/11/22 11:06:38;;;;;;;67.05;50.47;;;8.80;99.80;;;;;;5062741;28;20228;-82
2021/11/22 11:09:07;;;;;;;70.38;49.35;;;8.60;99.80;;;;;;5059272;28;20307;-82
2021/11/22 11:11:35;;;;;;;66.85;49.45;;;8.60;99.80;;;;;;5058392;28;20242;-82
2021/11/22 11:14:13;;;;;;;64.20;48.38;;;8.50;99.80;;;;;;5056087;28;20898;-83
2021/11/22 11:16:43;;;;;;;64.50;48.67;;;8.30;99.80;;;;;;5046671;28;20296;-82
2021/11/22 11:19:14;;;;;;;64.13;48.25;;;8.40;99.80;;;;;;5045760;28;20234;-83
2021/11/22 11:21:44;;;;;;;64.30;47.78;;;8.40;99.80;;;;;;5057217;28;20330;-83
2021/11/22 11:24:13;;;;;;;77.78;52.20;;;8.30;99.80;;;;;;5057317;28;20312;-82
2021/11/22 11:26:43;;;;;;;67.38;48.47;;;8.20;99.80;;;;;;5063630;28;21680;-83
2021/11/22 11:29:13;;;;;;;64.78;47.20;;;8.00;99.80;;;;;;5052823;28;20588;-82
2021/11/22 11:31:41;;;;;;;61.88;46.10;;;8.10;99.80;;;;;;5058384;28;20230;-82
2021/11/22 11:34:13;;;;;;;62.72;46.72;;;8.30;99.80;;;;;;5051662;28;20312;-83
2021/11/22 11:36:52;;;;;;;65.45;47.95;;;8.40;99.80;;;;;;5055665;28;20231;-82
2021/11/22 11:39:52;;;;;;;63.22;46.85;;;8.60;99.80;;;;;;5063680;28;20234;-82
2021/11/22 11:42:44;;;;;;;64.05;46.20;;;8.70;99.80;;;;;;5022210;28;20231;-85
2021/11/22 11:45:20;;;;;;;65.05;47.42;;;8.50;99.80;;;;;;5045268;28;22028;-84
2021/11/22 11:48:04;;;;;;;62.60;47.20;;;8.40;99.80;;;;;;5056601;28;20220;-84
2021/11/22 11:50:38;;;;;;;62.05;45.65;;;8.20;99.80;;;;;;5059929;28;20233;-84
2021/11/22 11:53:21;;;;;;;61.30;45.45;;;8.00;99.80;;;;;;5059500;28;20824;-84
2021/11/22 11:56:08;;;;;;;63.78;47.15;;;7.90;99.80;;;;;;5052939;28;20221;-84
2021/11/22 11:58:42;;;;;;;58.67;43.60;;;7.80;99.80;;;;;;5045561;28;20216;-85
2021/11/22 12:01:15;;;;;;;62.45;47.05;;;7.70;99.80;;;;;;5033128;28;20780;-84
2021/11/22 12:04:06;;;;;;;61.22;46.20;;;7.70;99.80;;;;;;5028068;28;20628;-85
2021/11/22 12:06:49;;;;;;;64.55;46.17;;;7.70;99.80;;;;;;5053903;28;20228;-84
2021/11/22 12:09:36;;;;;;;62.05;46.63;;;7.70;99.80;;;;;;5046004;28;20658;-85
2021/11/22 12:12:33;;;;;;;61.03;45.40;;;7.90;99.80;;;;;;5048688;28;20235;-84
2021/11/22 12:15:04;;;;;;;61.88;46.80;;;8.00;99.80;;;;;;5032541;28;20229;-84
2021/11/22 12:18:01;;;;;;;60.33;45.95;;;8.20;99.80;;;;;;5051650;28;20757;-84
2021/11/22 12:20:47;;;;;;;59.95;45.33;;;8.40;99.80;;;;;;5079119;28;20236;-85
2021/11/22 12:23:18;;;;;;;58.72;44.50;;;8.30;99.80;;;;;;5088290;28;20308;-85
2021/11/22 12:25:51;;;;;;;59.13;44.78;;;8.20;99.80;;;;;;5087835;28;20231;-84
2021/11/22 12:28:47;;;;;;;58.22;43.88;;;8.20;99.80;;;;;;5080084;28;20224;-85
2021/11/22 12:31:25;;;;;;;58.17;43.90;;;8.30;99.80;;;;;;5027648;28;20235;-85
2021/11/22 12:34:03;;;;;;;59.35;45.28;;;8.30;99.80;;;;;;5080751;28;20247;-85
2021/11/22 12:36:44;;;;;;;59.58;44.53;;;8.30;99.80;;;;;;5067805;28;20709;-85
2021/11/22 12:39:26;;;;;;;57.40;43.50;;;8.20;99.80;;;;;;5080345;28;20289;-85
2021/11/22 12:42:18;;;;;;;59.83;44.97;;;8.10;99.80;;;;;;5063197;28;20227;-85
2021/11/22 12:44:58;;;;;;;56.53;42.75;;;8.00;99.80;;;;;;5076672;28;20259;-85
2021/11/22 12:47:28;;;;;;;58.15;44.25;;;8.00;99.80;;;;;;5077606;28;20227;-85
2021/11/22 12:50:14;;;;;;;60.25;44.60;;;8.00;99.80;;;;;;5069364;28;20224;-85
2021/11/22 12:52:43;;;;;;;55.38;41.58;;;7.80;99.80;;;;;;5088469;28;20260;-85
2021/11/22 12:55:18;;;;;;;56.95;42.85;;;7.90;99.80;;;;;;5086419;28;20242;-85
2021/11/22 12:57:50;;;;;;;62.65;46.00;;;7.80;99.80;;;;;;5066860;28;20227;-82
2021/11/22 13:00:33;;;;;;;60.33;44.28;;;7.90;99.80;;;;;;5053285;28;20230;-83
2021/11/22 13:03:10;;;;;;;64.95;48.35;;;7.90;99.80;;;;;;5017792;28;20244;-82
2021/11/22 13:06:04;;;;;;;61.42;45.53;;;8.00;99.80;;;;;;5056926;28;20219;-82